Melfort, Canada
Current Conditions -  °F | °C
As of 7:00 PM on Tuesday 21 Oct 2014 (Local Time) from CYBU Reporting Station
Broken Clouds Broken Clouds  
Wind Chill: 57°   Ceiling: 15000
Heat Index: 57°   Visibility: 9mi
Dew Point: 45°   Wind: 6mph
Humidity: 63%   Direction: 150°SSE
Pressure: 29.53"   Gusts: NA
Location:  52.86°N, 104.62°W
Report Text: CYBU 220100Z AUTO 15005KT 9SM BKN150 14/07 A2953 RMK SLP011 DENSITY ALT 1800FT
Loading
Personal Weather Stations






























Interactive Weather Map New forecast layout! Learn more

10-Day Weather Forecast

Advertisements
Track Severe Weather on mobile